REV6ND EKRK-EKRK
Flight info
| Callsign | REV6ND |
|---|---|
| Flight time | 0h 28m |
| Altitude | 5000 |
| Route | DCT COPENHAGEN AREA DCT |
| Aircraft | F406/L-SDFGIRY/S |
Departure
| Time | 2026-04-14 15:19 |
|---|---|
| Airport | Copenhagen Roskilde Airport (EKRK) |
Arrival
| Time | 2026-04-14 15:47 |
|---|---|
| Airport | Copenhagen Roskilde Airport (EKRK) |
| Time | Latitude | Longitude | Altitude | Speed | Heading |
|---|---|---|---|---|---|
| 2026-04-14 15:06 | 55.59022 | 12.12798 | 137 ft | 0 kts | 117° |
| 2026-04-14 15:14 | 55.59007 | 12.12798 | 137 ft | 5 kts | 207° |
| 2026-04-14 15:14 | 55.58983 | 12.12756 | 137 ft | 1 kts | 288° |
| 2026-04-14 15:14 | 55.59018 | 12.12659 | 137 ft | 14 kts | 289° |
| 2026-04-14 15:14 | 55.58997 | 12.12573 | 137 ft | 9 kts | 206° |
| 2026-04-14 15:15 | 55.58933 | 12.12505 | 137 ft | 12 kts | 236° |
| 2026-04-14 15:15 | 55.58941 | 12.12392 | 137 ft | 10 kts | 297° |
| 2026-04-14 15:15 | 55.58979 | 12.12263 | 137 ft | 14 kts | 296° |
| 2026-04-14 15:15 | 55.59027 | 12.12096 | 137 ft | 17 kts | 300° |
| 2026-04-14 15:16 | 55.59078 | 12.11918 | 137 ft | 13 kts | 290° |
| 2026-04-14 15:16 | 55.59079 | 12.11801 | 137 ft | 7 kts | 250° |
| 2026-04-14 15:16 | 55.59064 | 12.11726 | 137 ft | 4 kts | 252° |
| 2026-04-14 15:16 | 55.59061 | 12.11710 | 137 ft | 0 kts | 250° |
| 2026-04-14 15:17 | 55.59061 | 12.11709 | 137 ft | 0 kts | 250° |
| 2026-04-14 15:17 | 55.59054 | 12.11677 | 137 ft | 5 kts | 250° |
| 2026-04-14 15:17 | 55.59028 | 12.11610 | 137 ft | 7 kts | 202° |
| 2026-04-14 15:18 | 55.58981 | 12.11620 | 137 ft | 5 kts | 141° |
| 2026-04-14 15:18 | 55.58971 | 12.11643 | 138 ft | 2 kts | 117° |
| 2026-04-14 15:18 | 55.58873 | 12.12003 | 139 ft | 79 kts | 116° |
| 2026-04-14 15:18 | 55.58545 | 12.13167 | 297 ft | 121 kts | 118° |
| 2026-04-14 15:19 | 55.58102 | 12.14578 | 644 ft | 137 kts | 120° |
| 2026-04-14 15:19 | 55.57577 | 12.16117 | 866 ft | 154 kts | 122° |
| 2026-04-14 15:19 | 55.57339 | 12.17938 | 1250 ft | 165 kts | 76° |
| 2026-04-14 15:19 | 55.57970 | 12.19652 | 1262 ft | 176 kts | 46° |
| 2026-04-14 15:20 | 55.58803 | 12.21173 | 1303 ft | 168 kts | 44° |
| 2026-04-14 15:20 | 55.59601 | 12.22665 | 1335 ft | 167 kts | 45° |
| 2026-04-14 15:20 | 55.60383 | 12.24181 | 1350 ft | 167 kts | 46° |
| 2026-04-14 15:20 | 55.61159 | 12.25714 | 1358 ft | 168 kts | 46° |
| 2026-04-14 15:21 | 55.61933 | 12.27258 | 1369 ft | 168 kts | 46° |
| 2026-04-14 15:21 | 55.62708 | 12.28810 | 1368 ft | 168 kts | 45° |
| 2026-04-14 15:21 | 55.63669 | 12.29907 | 1368 ft | 165 kts | 23° |
| 2026-04-14 15:21 | 55.64698 | 12.30814 | 1366 ft | 165 kts | 23° |
| 2026-04-14 15:22 | 55.65730 | 12.31717 | 1538 ft | 169 kts | 23° |
| 2026-04-14 15:22 | 55.66805 | 12.32650 | 1890 ft | 175 kts | 23° |
| 2026-04-14 15:22 | 55.67901 | 12.33618 | 2272 ft | 175 kts | 23° |
| 2026-04-14 15:22 | 55.68980 | 12.34574 | 2777 ft | 173 kts | 24° |
| 2026-04-14 15:23 | 55.70059 | 12.35513 | 3270 ft | 173 kts | 23° |
| 2026-04-14 15:23 | 55.71153 | 12.36465 | 3658 ft | 177 kts | 23° |
| 2026-04-14 15:23 | 55.72253 | 12.37423 | 3834 ft | 181 kts | 23° |
| 2026-04-14 15:23 | 55.73392 | 12.38430 | 3852 ft | 184 kts | 28° |
| 2026-04-14 15:24 | 55.74379 | 12.39897 | 3857 ft | 187 kts | 51° |
| 2026-04-14 15:24 | 55.75084 | 12.41855 | 3866 ft | 189 kts | 58° |
| 2026-04-14 15:24 | 55.75749 | 12.43864 | 3864 ft | 189 kts | 59° |
| 2026-04-14 15:24 | 55.76408 | 12.45886 | 3867 ft | 189 kts | 60° |
| 2026-04-14 15:25 | 55.77074 | 12.47888 | 3868 ft | 188 kts | 60° |
| 2026-04-14 15:25 | 55.77736 | 12.49884 | 3868 ft | 186 kts | 60° |
| 2026-04-14 15:25 | 55.78390 | 12.51853 | 3871 ft | 184 kts | 60° |
| 2026-04-14 15:25 | 55.79042 | 12.53812 | 3868 ft | 174 kts | 60° |
| 2026-04-14 15:26 | 55.79639 | 12.55279 | 3841 ft | 134 kts | 29° |
| 2026-04-14 15:26 | 55.80448 | 12.55422 | 3866 ft | 113 kts | 326° |
| 2026-04-14 15:26 | 55.80826 | 12.54316 | 3890 ft | 110 kts | 261° |
| 2026-04-14 15:26 | 55.80651 | 12.52966 | 3884 ft | 115 kts | 248° |
| 2026-04-14 15:27 | 55.80304 | 12.51535 | 3896 ft | 150 kts | 240° |
| 2026-04-14 15:27 | 55.79734 | 12.49762 | 3882 ft | 177 kts | 238° |
| 2026-04-14 15:27 | 55.79083 | 12.47888 | 3871 ft | 175 kts | 237° |
| 2026-04-14 15:27 | 55.78436 | 12.46085 | 3867 ft | 175 kts | 236° |
| 2026-04-14 15:28 | 55.77765 | 12.44282 | 3865 ft | 175 kts | 237° |
| 2026-04-14 15:28 | 55.77079 | 12.42508 | 3863 ft | 174 kts | 236° |
| 2026-04-14 15:28 | 55.76389 | 12.40744 | 3866 ft | 174 kts | 236° |
| 2026-04-14 15:28 | 55.75705 | 12.38999 | 3862 ft | 146 kts | 237° |
| 2026-04-14 15:29 | 55.75261 | 12.37776 | 3842 ft | 106 kts | 256° |
| 2026-04-14 15:29 | 55.75547 | 12.36645 | 3879 ft | 114 kts | 327° |
| 2026-04-14 15:29 | 55.76348 | 12.36691 | 3878 ft | 127 kts | 30° |
| 2026-04-14 15:29 | 55.77038 | 12.37722 | 3874 ft | 131 kts | 38° |
| 2026-04-14 15:30 | 55.77711 | 12.38869 | 3864 ft | 133 kts | 43° |
| 2026-04-14 15:30 | 55.78357 | 12.40180 | 3882 ft | 163 kts | 49° |
| 2026-04-14 15:30 | 55.79133 | 12.41904 | 3864 ft | 193 kts | 50° |
| 2026-04-14 15:30 | 55.79964 | 12.43812 | 3856 ft | 194 kts | 51° |
| 2026-04-14 15:31 | 55.80776 | 12.45712 | 3856 ft | 192 kts | 51° |
| 2026-04-14 15:31 | 55.81579 | 12.47592 | 3864 ft | 191 kts | 52° |
| 2026-04-14 15:31 | 55.82405 | 12.49454 | 3868 ft | 191 kts | 52° |
| 2026-04-14 15:31 | 55.83156 | 12.50821 | 3808 ft | 132 kts | 19° |
| 2026-04-14 15:32 | 55.83965 | 12.50713 | 3827 ft | 114 kts | 315° |
| 2026-04-14 15:32 | 55.84247 | 12.49447 | 3876 ft | 117 kts | 256° |
| 2026-04-14 15:32 | 55.83961 | 12.48045 | 3873 ft | 124 kts | 245° |
| 2026-04-14 15:32 | 55.83516 | 12.46713 | 3864 ft | 126 kts | 239° |
| 2026-04-14 15:33 | 55.82950 | 12.45192 | 3875 ft | 168 kts | 237° |
| 2026-04-14 15:33 | 55.82266 | 12.43418 | 3863 ft | 175 kts | 236° |
| 2026-04-14 15:33 | 55.81565 | 12.41636 | 3859 ft | 176 kts | 236° |
| 2026-04-14 15:33 | 55.80860 | 12.39858 | 3859 ft | 176 kts | 236° |
| 2026-04-14 15:34 | 55.80152 | 12.38080 | 3860 ft | 176 kts | 236° |
| 2026-04-14 15:34 | 55.79443 | 12.36298 | 3864 ft | 176 kts | 236° |
| 2026-04-14 15:34 | 55.78741 | 12.34537 | 3862 ft | 161 kts | 234° |
| 2026-04-14 15:34 | 55.78032 | 12.33562 | 3860 ft | 117 kts | 215° |
| 2026-04-14 15:35 | 55.77311 | 12.32783 | 3868 ft | 124 kts | 214° |
| 2026-04-14 15:35 | 55.76552 | 12.31991 | 3878 ft | 138 kts | 213° |
| 2026-04-14 15:35 | 55.75632 | 12.30988 | 3800 ft | 146 kts | 218° |
| 2026-04-14 15:35 | 55.74908 | 12.30032 | 3324 ft | 121 kts | 221° |
| 2026-04-14 15:36 | 55.74261 | 12.29110 | 2799 ft | 115 kts | 223° |
| 2026-04-14 15:36 | 55.73682 | 12.28163 | 2267 ft | 114 kts | 242° |
| 2026-04-14 15:36 | 55.73586 | 12.26770 | 1786 ft | 117 kts | 265° |
| 2026-04-14 15:36 | 55.73560 | 12.25267 | 1283 ft | 126 kts | 268° |
| 2026-04-14 15:37 | 55.73564 | 12.23710 | 1098 ft | 126 kts | 268° |
| 2026-04-14 15:37 | 55.73576 | 12.22137 | 1198 ft | 130 kts | 269° |
| 2026-04-14 15:37 | 55.73589 | 12.20555 | 1237 ft | 125 kts | 269° |
| 2026-04-14 15:37 | 55.73579 | 12.19046 | 1249 ft | 121 kts | 262° |
| 2026-04-14 15:38 | 55.73217 | 12.17622 | 1275 ft | 138 kts | 235° |
| 2026-04-14 15:38 | 55.72555 | 12.16329 | 1272 ft | 144 kts | 223° |
| 2026-04-14 15:38 | 55.71798 | 12.15139 | 1269 ft | 146 kts | 220° |
| 2026-04-14 15:38 | 55.71012 | 12.13997 | 1261 ft | 147 kts | 219° |
| 2026-04-14 15:39 | 55.70205 | 12.12892 | 1264 ft | 147 kts | 216° |
| 2026-04-14 15:39 | 55.69304 | 12.12034 | 1264 ft | 149 kts | 204° |
| 2026-04-14 15:39 | 55.68324 | 12.11423 | 1270 ft | 150 kts | 200° |
| 2026-04-14 15:39 | 55.67330 | 12.10879 | 1265 ft | 149 kts | 200° |
| 2026-04-14 15:40 | 55.66331 | 12.10360 | 1276 ft | 150 kts | 199° |
| 2026-04-14 15:40 | 55.65338 | 12.09865 | 1277 ft | 143 kts | 199° |
| 2026-04-14 15:40 | 55.64403 | 12.09408 | 1276 ft | 136 kts | 198° |
| 2026-04-14 15:40 | 55.63455 | 12.08944 | 1279 ft | 137 kts | 199° |
| 2026-04-14 15:41 | 55.62625 | 12.08548 | 1256 ft | 115 kts | 198° |
| 2026-04-14 15:41 | 55.61869 | 12.08191 | 1269 ft | 111 kts | 198° |
| 2026-04-14 15:41 | 55.61139 | 12.07846 | 1278 ft | 107 kts | 199° |
| 2026-04-14 15:41 | 55.60489 | 12.07321 | 1261 ft | 101 kts | 243° |
| 2026-04-14 15:42 | 55.60542 | 12.06140 | 1328 ft | 108 kts | 304° |
| 2026-04-14 15:42 | 55.61020 | 12.05049 | 1306 ft | 116 kts | 311° |
| 2026-04-14 15:42 | 55.61670 | 12.04224 | 1284 ft | 118 kts | 352° |
| 2026-04-14 15:42 | 55.62427 | 12.04689 | 1281 ft | 116 kts | 30° |
| 2026-04-14 15:43 | 55.62892 | 12.05827 | 1275 ft | 122 kts | 85° |
| 2026-04-14 15:43 | 55.62773 | 12.07315 | 1206 ft | 120 kts | 103° |
| 2026-04-14 15:43 | 55.62574 | 12.08642 | 854 ft | 101 kts | 107° |
| 2026-04-14 15:43 | 55.62345 | 12.09770 | 602 ft | 98 kts | 117° |
| 2026-04-14 15:44 | 55.61860 | 12.10530 | 701 ft | 100 kts | 169° |
| 2026-04-14 15:44 | 55.61158 | 12.10335 | 670 ft | 106 kts | 202° |
| 2026-04-14 15:44 | 55.60403 | 12.09784 | 885 ft | 121 kts | 200° |
| 2026-04-14 15:44 | 55.59652 | 12.09399 | 734 ft | 111 kts | 190° |
| 2026-04-14 15:45 | 55.58782 | 12.08973 | 835 ft | 127 kts | 200° |
| 2026-04-14 15:45 | 55.58174 | 12.08064 | 823 ft | 117 kts | 250° |
| 2026-04-14 15:45 | 55.58355 | 12.06754 | 796 ft | 118 kts | 324° |
| 2026-04-14 15:45 | 55.59120 | 12.06713 | 1019 ft | 120 kts | 28° |
| 2026-04-14 15:46 | 55.59673 | 12.07842 | 815 ft | 120 kts | 72° |
| 2026-04-14 15:46 | 55.59645 | 12.09167 | 494 ft | 102 kts | 112° |
| 2026-04-14 15:46 | 55.59379 | 12.10187 | 326 ft | 88 kts | 117° |
| 2026-04-14 15:46 | 55.59112 | 12.11152 | 240 ft | 87 kts | 115° |
| 2026-04-14 15:47 | 55.58832 | 12.12149 | 140 ft | 90 kts | 116° |
| 2026-04-14 15:47 | 55.58688 | 12.12665 | 135 ft | 46 kts | 118° |
| 2026-04-14 15:47 | 55.58635 | 12.12889 | 136 ft | 9 kts | 80° |
| 2026-04-14 15:47 | 55.58656 | 12.12920 | 136 ft | 4 kts | 25° |
| 2026-04-14 15:48 | 55.58683 | 12.12947 | 137 ft | 3 kts | 32° |
| 2026-04-14 15:48 | 55.58712 | 12.12979 | 137 ft | 7 kts | 32° |
| 2026-04-14 15:48 | 55.58766 | 12.13035 | 137 ft | 9 kts | 22° |
| 2026-04-14 15:48 | 55.58836 | 12.13097 | 137 ft | 13 kts | 28° |
| 2026-04-14 15:49 | 55.58884 | 12.13129 | 137 ft | 6 kts | 345° |
| 2026-04-14 15:49 | 55.58904 | 12.13068 | 137 ft | 10 kts | 289° |
| 2026-04-14 15:49 | 55.58937 | 12.12941 | 137 ft | 8 kts | 300° |
| 2026-04-14 15:49 | 55.58964 | 12.12854 | 137 ft | 7 kts | 298° |
| 2026-04-14 15:50 | 55.58995 | 12.12817 | 137 ft | 2 kts | 14° |
| 2026-04-14 15:50 | 55.59012 | 12.12833 | 137 ft | 1 kts | 41° |
| 2026-04-14 15:50 | 55.59013 | 12.12836 | 137 ft | 0 kts | 72° |
| 2026-04-14 15:50 | 55.59013 | 12.12838 | 137 ft | 0 kts | 84° |